createdAt,value
2018-05-05T00:01:41.327Z,102404.53
2018-05-05T00:04:07.095Z,102404.23
2018-05-05T00:06:32.862Z,102408.20
2018-05-05T00:08:58.627Z,102408.80
2018-05-05T00:11:24.391Z,102401.11
2018-05-05T00:13:50.156Z,102398.59
2018-05-05T00:16:15.903Z,102409.11
2018-05-05T00:18:41.687Z,102410.09
2018-05-05T00:21:07.432Z,102414.66
2018-05-05T00:23:33.203Z,102407.95
2018-05-05T00:25:59.015Z,102407.73
2018-05-05T00:28:24.776Z,102405.28
2018-05-05T00:30:50.521Z,102403.67
2018-05-05T00:33:16.294Z,102405.16
2018-05-05T00:35:42.038Z,102407.02
2018-05-05T00:38:07.812Z,102410.23
2018-05-05T00:40:33.565Z,102412.17
2018-05-05T00:42:59.342Z,102406.28
2018-05-05T00:45:25.099Z,102412.20
2018-05-05T00:47:50.847Z,102411.92
2018-05-05T00:50:16.646Z,102410.48
2018-05-05T00:52:42.460Z,102413.85
2018-05-05T00:55:08.239Z,102419.12
2018-05-05T00:57:34.043Z,102419.80
2018-05-05T00:59:59.808Z,102420.49
2018-05-05T01:02:25.576Z,102425.46
2018-05-05T01:04:51.340Z,102425.98
2018-05-05T01:07:17.166Z,102422.58
2018-05-05T01:09:42.914Z,102427.81
2018-05-05T01:12:08.689Z,102436.25
2018-05-05T01:14:34.477Z,102428.11
2018-05-05T01:17:00.246Z,102435.98
2018-05-05T01:19:26.016Z,102432.19
2018-05-05T01:21:51.768Z,102427.02
2018-05-05T01:24:17.539Z,102428.68
2018-05-05T01:26:43.304Z,102425.61
2018-05-05T01:29:09.057Z,102430.88
2018-05-05T01:31:34.799Z,102434.59
2018-05-05T01:34:00.565Z,102440.77
2018-05-05T01:36:26.310Z,102448.19
2018-05-05T01:38:52.095Z,102451.81
2018-05-05T01:41:17.867Z,102453.14
2018-05-05T01:43:43.636Z,102450.25
2018-05-05T01:46:09.408Z,102444.02
2018-05-05T01:48:35.163Z,102453.05
2018-05-05T01:51:00.984Z,102454.00
2018-05-05T01:53:26.771Z,102455.67
2018-05-05T01:55:52.525Z,102463.02
2018-05-05T01:58:18.478Z,102458.58
2018-05-05T02:00:44.247Z,102454.20
2018-05-05T02:03:10.031Z,102449.95
2018-05-05T02:05:35.812Z,102447.82
2018-05-05T02:08:01.565Z,102453.14
2018-05-05T02:10:27.340Z,102453.42
2018-05-05T02:12:53.081Z,102453.39
2018-05-05T02:15:18.872Z,102448.28
2018-05-05T02:17:44.623Z,102453.94
2018-05-05T02:20:10.403Z,102451.39
2018-05-05T02:22:36.209Z,102455.41
2018-05-05T02:25:02.029Z,102453.70
2018-05-05T02:27:27.910Z,102456.38
2018-05-05T02:29:53.638Z,102450.72
2018-05-05T02:32:19.417Z,102453.83
2018-05-05T02:34:45.235Z,102453.06
2018-05-05T02:37:11.301Z,102462.00
2018-05-05T02:39:37.049Z,102471.06
2018-05-05T02:42:02.817Z,102470.33
2018-05-05T02:44:28.620Z,102471.84
2018-05-05T02:46:54.371Z,102467.71
2018-05-05T02:49:20.147Z,102461.91
2018-05-05T02:51:45.911Z,102462.48
2018-05-05T02:54:11.682Z,102456.03
2018-05-05T02:56:37.584Z,102452.17
2018-05-05T02:59:03.424Z,102449.25
2018-05-05T03:01:29.217Z,102444.69
2018-05-05T03:03:54.988Z,102445.48
2018-05-05T03:06:20.732Z,102449.38
2018-05-05T03:08:46.511Z,102448.23
2018-05-05T03:11:12.263Z,102451.98
2018-05-05T03:13:38.028Z,102447.44
2018-05-05T03:16:03.799Z,102448.93
2018-05-05T03:18:29.555Z,102446.86
2018-05-05T03:20:55.565Z,102448.41
2018-05-05T03:23:21.356Z,102444.57
2018-05-05T03:25:47.185Z,102440.75
2018-05-05T03:28:12.939Z,102446.87
2018-05-05T03:30:38.715Z,102451.92
2018-05-05T03:33:04.506Z,102452.06
2018-05-05T03:35:30.263Z,102450.59
2018-05-05T03:37:56.056Z,102453.27
2018-05-05T03:40:21.828Z,102458.06
2018-05-05T03:42:47.607Z,102460.34
2018-05-05T03:45:13.359Z,102463.41
2018-05-05T03:47:39.138Z,102469.56
2018-05-05T03:50:11.959Z,102466.62
2018-05-05T03:52:37.738Z,102464.01
2018-05-05T03:55:03.529Z,102459.81
2018-05-05T03:57:29.586Z,102457.69
2018-05-05T04:00:07.585Z,102459.44
2018-05-05T04:02:45.821Z,102452.17
2018-05-05T04:08:21.348Z,102450.42
2018-05-05T04:10:47.131Z,102452.06
2018-05-05T04:13:12.875Z,102452.91
2018-05-05T04:15:38.675Z,102454.58
2018-05-05T04:18:04.433Z,102454.22
2018-05-05T04:20:30.192Z,102446.53
2018-05-05T04:22:55.964Z,102451.83
2018-05-05T04:25:21.723Z,102451.26
2018-05-05T04:27:47.506Z,102460.22
2018-05-05T04:30:13.307Z,102462.20
2018-05-05T04:32:39.095Z,102457.74
2018-05-05T04:35:04.844Z,102458.54
2018-05-05T04:37:30.623Z,102459.61
2018-05-05T04:39:56.367Z,102471.16
2018-05-05T04:42:22.143Z,102466.36
2018-05-05T04:44:47.907Z,102460.44
2018-05-05T04:47:13.674Z,102469.41
2018-05-05T04:49:39.424Z,102464.82
2018-05-05T04:52:05.317Z,102457.47
2018-05-05T04:54:31.094Z,102460.09
2018-05-05T04:56:56.867Z,102464.07
2018-05-05T04:59:22.633Z,102467.35
2018-05-05T05:01:48.423Z,102462.24
2018-05-05T05:04:14.188Z,102457.52
2018-05-05T05:06:39.991Z,102464.34
2018-05-05T05:09:05.826Z,102470.47
2018-05-05T05:11:31.588Z,102479.09
2018-05-05T05:13:57.360Z,102490.91
2018-05-05T05:16:23.107Z,102499.39
2018-05-05T05:18:48.879Z,102504.59
2018-05-05T05:21:14.630Z,102512.47
2018-05-05T05:23:40.399Z,102516.99
2018-05-05T05:26:06.168Z,102517.92
2018-05-05T05:28:31.931Z,102521.31
2018-05-05T05:30:57.703Z,102513.77
2018-05-05T05:33:23.521Z,102518.05
2018-05-05T05:35:49.322Z,102522.55
2018-05-05T05:38:15.070Z,102517.30
2018-05-05T05:40:40.815Z,102520.61
2018-05-05T05:43:06.616Z,102528.63
2018-05-05T05:45:32.356Z,102534.52
2018-05-05T05:47:58.139Z,102533.22
2018-05-05T05:50:23.879Z,102545.67
2018-05-05T05:52:49.863Z,102552.08
2018-05-05T05:55:15.615Z,102554.24
2018-05-05T05:57:41.407Z,102560.36
2018-05-05T06:00:07.182Z,102557.83
2018-05-05T06:02:32.923Z,102561.45
2018-05-05T06:04:58.698Z,102563.23
2018-05-05T06:07:24.447Z,102570.79
2018-05-05T06:09:50.487Z,102573.48
2018-05-05T06:12:16.231Z,102579.23
2018-05-05T06:14:42.000Z,102581.77
2018-05-05T06:17:07.759Z,102580.25
2018-05-05T06:19:33.536Z,102580.58
2018-05-05T06:21:59.295Z,102577.41
2018-05-05T06:24:25.080Z,102576.10
2018-05-05T06:26:50.838Z,102576.28
2018-05-05T06:29:16.613Z,102581.41
2018-05-05T06:31:42.364Z,102585.91
2018-05-05T06:34:08.401Z,102586.34
2018-05-05T06:36:34.179Z,102581.65
2018-05-05T06:38:59.933Z,102582.53
2018-05-05T06:41:25.699Z,102578.58
2018-05-05T06:43:51.471Z,102580.00
2018-05-05T06:46:17.226Z,102576.11
2018-05-05T06:48:42.999Z,102581.29
2018-05-05T06:51:08.799Z,102580.29
2018-05-05T06:53:34.572Z,102583.89
2018-05-05T06:56:00.318Z,102580.53
2018-05-05T06:58:26.109Z,102572.67
2018-05-05T07:00:51.899Z,102570.28
2018-05-05T07:03:17.684Z,102560.59
2018-05-05T07:05:43.444Z,102553.70
2018-05-05T07:08:09.240Z,102557.06
2018-05-05T07:10:35.441Z,102553.23
2018-05-05T07:13:01.218Z,102561.90
2018-05-05T07:15:27.034Z,102564.89
2018-05-05T07:17:52.756Z,102574.69
2018-05-05T07:20:18.558Z,102571.98
2018-05-05T07:22:44.366Z,102568.27
2018-05-05T07:25:10.150Z,102565.97
2018-05-05T07:27:35.910Z,102562.36
2018-05-05T07:30:01.780Z,102564.73
2018-05-05T07:32:27.552Z,102565.39
2018-05-05T07:34:53.354Z,102562.49
2018-05-05T07:37:19.099Z,102575.94
2018-05-05T07:39:44.890Z,102584.39
2018-05-05T07:42:10.660Z,102586.00
2018-05-05T07:44:36.440Z,102585.75
2018-05-05T07:47:02.193Z,102582.56
2018-05-05T07:49:27.983Z,102587.09
2018-05-05T07:51:53.745Z,102585.28
2018-05-05T07:54:19.501Z,102589.98
2018-05-05T07:56:45.300Z,102590.19
2018-05-05T07:59:11.061Z,102590.11
2018-05-05T08:01:36.817Z,102587.98
2018-05-05T08:04:02.643Z,102588.53
2018-05-05T08:06:28.423Z,102586.60
2018-05-05T08:08:54.198Z,102587.33
2018-05-05T08:11:20.123Z,102586.79
2018-05-05T08:13:46.256Z,102580.44
2018-05-05T08:16:12.028Z,102584.19
2018-05-05T08:18:37.793Z,102575.61
2018-05-05T08:21:03.554Z,102571.61
2018-05-05T08:23:29.368Z,102574.30
2018-05-05T08:25:55.129Z,102573.95
2018-05-05T08:28:20.899Z,102577.03
2018-05-05T08:30:46.675Z,102569.39
2018-05-05T08:33:12.432Z,102569.72
2018-05-05T08:35:38.226Z,102562.68
2018-05-05T08:38:03.992Z,102561.85
2018-05-05T08:40:29.792Z,102568.53
2018-05-05T08:42:55.554Z,102566.39
2018-05-05T08:45:21.346Z,102570.39
2018-05-05T08:47:47.092Z,102567.50
2018-05-05T08:50:12.867Z,102571.76
2018-05-05T08:52:38.631Z,102569.73
2018-05-05T08:55:04.416Z,102575.67
2018-05-05T08:57:30.186Z,102566.27
2018-05-05T08:59:56.015Z,102564.05
2018-05-05T09:02:21.789Z,102572.20
2018-05-05T09:04:47.531Z,102568.42
2018-05-05T09:07:13.325Z,102568.81
2018-05-05T09:09:39.088Z,102575.10
2018-05-05T09:12:04.893Z,102574.41
2018-05-05T09:14:30.643Z,102581.37
2018-05-05T09:16:56.410Z,102581.72
2018-05-05T09:19:22.155Z,102580.13
2018-05-05T09:21:47.966Z,102574.11
2018-05-05T09:24:14.060Z,102572.70
2018-05-05T09:26:39.860Z,102568.56
2018-05-05T09:29:05.611Z,102575.34
2018-05-05T09:31:31.436Z,102563.23
2018-05-05T09:33:57.261Z,102568.08
2018-05-05T09:36:23.264Z,102565.53
2018-05-05T09:38:49.023Z,102561.80
2018-05-05T09:41:15.095Z,102556.98
2018-05-05T09:43:40.854Z,102554.41
2018-05-05T09:46:06.694Z,102556.26
2018-05-05T09:48:32.954Z,102549.16
2018-05-05T09:50:58.671Z,102555.13
2018-05-05T09:53:24.476Z,102546.95
2018-05-05T09:55:50.247Z,102544.61
2018-05-05T09:58:16.054Z,102547.47
2018-05-05T10:00:41.839Z,102552.89
2018-05-05T10:03:07.594Z,102550.47
2018-05-05T10:05:33.379Z,102548.09
2018-05-05T10:07:59.111Z,102549.42
2018-05-05T10:10:24.879Z,102552.03
2018-05-05T10:12:50.668Z,102548.27
2018-05-05T10:15:16.436Z,102550.78
2018-05-05T10:17:42.228Z,102552.93
2018-05-05T10:20:07.988Z,102545.73
2018-05-05T10:22:34.014Z,102546.91
2018-05-05T10:24:59.811Z,102540.07
2018-05-05T10:27:25.571Z,102540.28
2018-05-05T10:29:51.387Z,102534.19
2018-05-05T10:32:17.167Z,102530.41
2018-05-05T10:34:42.961Z,102526.38
2018-05-05T10:37:08.712Z,102525.89
2018-05-05T10:39:34.475Z,102521.69
2018-05-05T10:42:00.239Z,102529.58
2018-05-05T10:44:25.995Z,102520.30
2018-05-05T10:46:51.835Z,102518.73
2018-05-05T10:49:17.609Z,102522.32
2018-05-05T10:51:43.394Z,102515.88
2018-05-05T10:54:09.351Z,102511.80
2018-05-05T10:56:35.139Z,102518.75
2018-05-05T10:59:01.280Z,102510.20
2018-05-05T11:01:27.138Z,102513.48
2018-05-05T11:03:52.835Z,102504.34
2018-05-05T11:06:18.619Z,102502.86
2018-05-05T11:08:44.358Z,102505.47
2018-05-05T11:11:10.135Z,102503.35
2018-05-05T11:13:35.889Z,102512.92
2018-05-05T11:16:01.652Z,102505.81
2018-05-05T11:18:27.416Z,102502.54
2018-05-05T11:20:53.171Z,102497.34
2018-05-05T11:23:18.948Z,102499.14
2018-05-05T11:25:44.724Z,102500.61
2018-05-05T11:28:10.503Z,102497.92
2018-05-05T11:30:36.262Z,102499.51
2018-05-05T11:33:02.016Z,102498.13
2018-05-05T11:35:27.772Z,102500.94
2018-05-05T11:37:53.507Z,102491.43
2018-05-05T11:40:19.292Z,102494.11
2018-05-05T11:42:45.064Z,102488.82
2018-05-05T11:45:10.864Z,102490.19
2018-05-05T11:47:36.628Z,102488.08
2018-05-05T11:50:02.400Z,102491.49
2018-05-05T11:52:28.142Z,102480.72
2018-05-05T11:54:53.936Z,102486.95
2018-05-05T11:57:19.696Z,102484.39
2018-05-05T11:59:45.613Z,102486.20
2018-05-05T12:02:11.405Z,102486.87
2018-05-05T12:04:37.144Z,102486.89
2018-05-05T12:07:02.899Z,102489.09
2018-05-05T12:09:28.674Z,102491.08
2018-05-05T12:11:54.446Z,102487.51
2018-05-05T12:14:20.183Z,102489.03
2018-05-05T12:16:45.956Z,102480.52
2018-05-05T12:19:11.738Z,102479.43
2018-05-05T12:21:37.533Z,102480.75
2018-05-05T12:24:03.293Z,102482.15
2018-05-05T12:26:29.080Z,102484.81
2018-05-05T12:28:54.835Z,102488.74
2018-05-05T12:31:20.615Z,102480.08
2018-05-05T12:33:46.414Z,102480.75
2018-05-05T12:36:12.184Z,102471.61
2018-05-05T12:38:37.931Z,102465.54
2018-05-05T12:41:03.723Z,102463.92
2018-05-05T12:43:29.467Z,102461.42
2018-05-05T12:45:55.243Z,102467.31
2018-05-05T12:48:21.004Z,102457.21
2018-05-05T12:50:46.767Z,102462.83
2018-05-05T12:53:12.539Z,102454.63
2018-05-05T12:55:38.306Z,102457.50
2018-05-05T12:58:04.068Z,102450.80
2018-05-05T13:00:30.157Z,102456.50
2018-05-05T13:02:55.914Z,102460.50
2018-05-05T13:05:21.709Z,102456.48
2018-05-05T13:07:47.467Z,102452.97
2018-05-05T13:10:13.243Z,102452.73
2018-05-05T13:12:39.004Z,102459.83
2018-05-05T13:15:04.818Z,102454.15
2018-05-05T13:17:30.566Z,102457.84
2018-05-05T13:19:56.343Z,102455.17
2018-05-05T13:22:22.111Z,102445.95
2018-05-05T13:24:47.883Z,102446.00
2018-05-05T13:27:13.674Z,102449.05
2018-05-05T13:29:39.471Z,102443.88
2018-05-05T13:32:05.239Z,102440.03
2018-05-05T13:34:30.990Z,102436.14
2018-05-05T13:36:56.767Z,102435.42
2018-05-05T13:39:22.815Z,102439.47
2018-05-05T13:41:48.589Z,102433.27
2018-05-05T13:44:14.336Z,102433.05
2018-05-05T13:46:40.125Z,102423.89
2018-05-05T13:49:05.871Z,102427.76
2018-05-05T13:51:31.647Z,102426.39
2018-05-05T13:53:57.419Z,102417.44
2018-05-05T13:56:23.227Z,102422.84
2018-05-05T13:58:49.003Z,102419.16
2018-05-05T14:01:14.776Z,102417.51
2018-05-05T14:03:40.514Z,102409.92
2018-05-05T14:06:06.304Z,102414.28
2018-05-05T14:08:32.089Z,102410.45
2018-05-05T14:10:57.827Z,102410.28
2018-05-05T14:13:23.598Z,102402.63
2018-05-05T14:15:49.371Z,102401.70
2018-05-05T14:18:15.139Z,102397.72
2018-05-05T14:20:40.891Z,102397.97
2018-05-05T14:23:06.712Z,102396.81
2018-05-05T14:25:32.532Z,102396.89
2018-05-05T14:27:58.359Z,102400.02
2018-05-05T14:30:24.131Z,102389.95
2018-05-05T14:32:49.903Z,102390.36
2018-05-05T14:35:15.724Z,102381.47
2018-05-05T14:37:41.488Z,102385.71
2018-05-05T14:40:07.230Z,102382.73
2018-05-05T14:42:32.991Z,102385.56
2018-05-05T14:44:58.761Z,102390.41
2018-05-05T14:47:24.518Z,102383.95
2018-05-05T14:49:50.407Z,102376.20
2018-05-05T14:52:16.254Z,102376.63
2018-05-05T14:54:42.028Z,102376.73
2018-05-05T14:57:08.066Z,102374.30
2018-05-05T14:59:33.827Z,102373.82
2018-05-05T15:01:59.601Z,102379.60
2018-05-05T15:04:25.358Z,102377.00
2018-05-05T15:06:51.143Z,102375.80
2018-05-05T15:09:16.882Z,102371.44
2018-05-05T15:11:42.659Z,102367.53
2018-05-05T15:14:08.425Z,102370.86
2018-05-05T15:16:34.187Z,102370.56
2018-05-05T15:19:00.834Z,102371.72
2018-05-05T15:21:26.712Z,102371.84
2018-05-05T15:23:52.515Z,102373.90
2018-05-05T15:26:18.289Z,102373.47
2018-05-05T15:28:44.066Z,102368.18
2018-05-05T15:31:09.819Z,102366.92
2018-05-05T15:33:35.595Z,102364.37
2018-05-05T15:36:01.346Z,102365.45
2018-05-05T15:38:27.684Z,102368.30
2018-05-05T15:40:53.435Z,102362.37
2018-05-05T15:43:19.213Z,102363.95
2018-05-05T15:45:45.033Z,102356.13
2018-05-05T15:48:10.781Z,102359.83
2018-05-05T15:50:36.564Z,102351.73
2018-05-05T15:53:02.396Z,102350.82
2018-05-05T15:55:28.156Z,102346.88
2018-05-05T15:57:54.015Z,102354.03
2018-05-05T16:00:19.784Z,102347.12
2018-05-05T16:02:45.795Z,102345.72
2018-05-05T16:05:11.548Z,102347.05
2018-05-05T16:07:37.713Z,102342.52
2018-05-05T16:10:03.478Z,102346.86
2018-05-05T16:12:29.290Z,102345.52
2018-05-05T16:14:55.036Z,102340.20
2018-05-05T16:17:20.795Z,102346.75
2018-05-05T16:19:46.555Z,102345.92
2018-05-05T16:22:12.340Z,102340.16
2018-05-05T16:24:38.138Z,102338.02
2018-05-05T16:27:03.898Z,102343.17
2018-05-05T16:29:29.663Z,102340.56
2018-05-05T16:31:55.432Z,102340.73
2018-05-05T16:34:21.203Z,102336.77
2018-05-05T16:36:46.962Z,102336.61
2018-05-05T16:39:12.759Z,102339.94
2018-05-05T16:41:38.543Z,102337.27
2018-05-05T16:44:04.334Z,102340.77
2018-05-05T16:46:30.079Z,102332.50
2018-05-05T16:48:55.839Z,102343.64
2018-05-05T16:51:21.590Z,102333.93
2018-05-05T16:53:47.368Z,102335.34
2018-05-05T16:56:13.163Z,102338.19
2018-05-05T16:58:38.992Z,102335.88
2018-05-05T17:01:04.752Z,102329.89
2018-05-05T17:03:30.551Z,102328.63
2018-05-05T17:05:56.298Z,102334.69
2018-05-05T17:08:22.087Z,102327.89
2018-05-05T17:10:47.826Z,102325.89
2018-05-05T17:13:13.632Z,102324.14
2018-05-05T17:15:39.384Z,102326.33
2018-05-05T17:18:05.167Z,102330.38
2018-05-05T17:20:30.923Z,102327.75
2018-05-05T17:22:56.704Z,102327.50
2018-05-05T17:25:22.480Z,102321.94
2018-05-05T17:27:48.231Z,102329.32
2018-05-05T17:30:13.987Z,102319.88
2018-05-05T17:32:39.787Z,102317.22
2018-05-05T17:35:05.581Z,102316.33
2018-05-05T17:37:31.327Z,102324.69
2018-05-05T17:39:57.088Z,102320.69
2018-05-05T17:42:22.854Z,102320.51
2018-05-05T17:44:48.647Z,102328.84
2018-05-05T17:47:14.420Z,102325.83
2018-05-05T17:49:40.231Z,102326.48
2018-05-05T17:52:05.998Z,102326.48
2018-05-05T17:54:31.832Z,102322.31
2018-05-05T17:56:57.571Z,102326.54
2018-05-05T17:59:23.520Z,102325.75
2018-05-05T18:01:49.343Z,102328.63
2018-05-05T18:04:15.174Z,102325.03
2018-05-05T18:06:40.942Z,102323.81
2018-05-05T18:09:06.738Z,102325.00
2018-05-05T18:11:32.479Z,102325.72
2018-05-05T18:13:58.298Z,102328.48
2018-05-05T18:16:24.047Z,102328.56
2018-05-05T18:18:49.837Z,102330.16
2018-05-05T18:21:15.619Z,102338.27
2018-05-05T18:23:41.370Z,102340.70
2018-05-05T18:26:07.144Z,102336.49
2018-05-05T18:28:32.906Z,102340.60
2018-05-05T18:30:58.679Z,102340.53
2018-05-05T18:33:24.451Z,102347.80
2018-05-05T18:35:50.191Z,102340.92
2018-05-05T18:38:16.160Z,102349.66
2018-05-05T18:40:41.976Z,102354.46
2018-05-05T18:43:07.835Z,102360.36
2018-05-05T18:45:33.580Z,102355.97
2018-05-05T18:47:59.358Z,102355.42
2018-05-05T18:50:25.244Z,102358.09
2018-05-05T18:52:51.028Z,102365.23
2018-05-05T18:55:17.307Z,102374.47
2018-05-05T18:57:43.061Z,102375.93
2018-05-05T19:00:08.870Z,102369.79
2018-05-05T19:02:34.644Z,102378.27
2018-05-05T19:05:00.435Z,102378.09
2018-05-05T19:07:26.189Z,102377.36
2018-05-05T19:09:52.041Z,102378.00
2018-05-05T19:12:17.824Z,102388.45
2018-05-05T19:14:43.583Z,102382.12
2018-05-05T19:17:09.335Z,102384.82
2018-05-05T19:19:35.106Z,102389.00
2018-05-05T19:22:00.863Z,102391.20
2018-05-05T19:24:26.655Z,102391.59
2018-05-05T19:26:52.477Z,102391.46
2018-05-05T19:29:18.159Z,102393.31
2018-05-05T19:31:44.056Z,102399.64
2018-05-05T19:34:10.093Z,102404.14
2018-05-05T19:36:35.923Z,102407.34
2018-05-05T19:39:01.727Z,102407.24
2018-05-05T19:41:27.499Z,102410.38
2018-05-05T19:43:53.363Z,102411.57
2018-05-05T19:46:19.148Z,102407.16
2018-05-05T19:48:44.910Z,102411.52
2018-05-05T19:51:10.696Z,102408.38
2018-05-05T19:53:36.455Z,102404.44
2018-05-05T19:56:02.236Z,102406.35
2018-05-05T19:58:28.015Z,102409.02
2018-05-05T20:00:53.801Z,102411.98
2018-05-05T20:03:19.550Z,102410.42
2018-05-05T20:05:45.375Z,102412.09
2018-05-05T20:08:11.118Z,102411.97
2018-05-05T20:10:36.905Z,102417.17
2018-05-05T20:13:02.660Z,102414.92
2018-05-05T20:15:28.426Z,102420.28
2018-05-05T20:17:54.172Z,102429.40
2018-05-05T20:20:19.983Z,102423.52
2018-05-05T20:22:45.979Z,102424.23
2018-05-05T20:25:11.775Z,102427.97
2018-05-05T20:27:37.533Z,102426.34
2018-05-05T20:30:03.345Z,102426.45
2018-05-05T20:32:29.299Z,102425.70
2018-05-05T20:34:55.076Z,102419.19
2018-05-05T20:37:20.874Z,102421.12
2018-05-05T20:39:46.651Z,102418.77
2018-05-05T20:42:12.383Z,102423.21
2018-05-05T20:44:38.170Z,102418.96
2018-05-05T20:47:03.936Z,102408.01
2018-05-05T20:49:29.705Z,102418.39
2018-05-05T20:51:55.497Z,102420.56
2018-05-05T20:54:21.247Z,102427.59
2018-05-05T20:56:47.049Z,102418.72
2018-05-05T20:59:13.130Z,102423.39
2018-05-05T21:01:39.802Z,102421.06
2018-05-05T21:04:05.564Z,102417.52
2018-05-05T21:06:31.357Z,102414.69
2018-05-05T21:08:57.103Z,102419.73
2018-05-05T21:11:22.893Z,102426.70
2018-05-05T21:13:48.639Z,102425.25
2018-05-05T21:16:14.411Z,102431.73
2018-05-05T21:18:40.147Z,102429.98
2018-05-05T21:21:06.025Z,102431.51
2018-05-05T21:23:31.729Z,102440.08
2018-05-05T21:25:57.512Z,102440.27
2018-05-05T21:28:23.264Z,102435.70
2018-05-05T21:30:49.231Z,102432.66
2018-05-05T21:33:15.019Z,102433.59
2018-05-05T21:35:40.787Z,102441.32
2018-05-05T21:38:06.560Z,102438.61
2018-05-05T21:40:32.568Z,102446.36
2018-05-05T21:42:58.339Z,102448.00
2018-05-05T21:45:24.099Z,102449.38
2018-05-05T21:47:49.856Z,102449.31
2018-05-05T21:50:15.634Z,102444.86
2018-05-05T21:52:41.391Z,102443.77
2018-05-05T21:55:07.162Z,102441.30
2018-05-05T21:57:32.928Z,102444.34
2018-05-05T21:59:58.696Z,102447.66
2018-05-05T22:02:24.465Z,102443.97
2018-05-05T22:04:51.123Z,102449.63
2018-05-05T22:07:16.948Z,102439.95
2018-05-05T22:09:42.695Z,102442.38
2018-05-05T22:12:08.500Z,102435.76
2018-05-05T22:14:34.244Z,102434.31
2018-05-05T22:17:00.035Z,102425.74
2018-05-05T22:19:25.842Z,102422.68
2018-05-05T22:21:51.615Z,102426.55
2018-05-05T22:24:17.382Z,102429.78
2018-05-05T22:26:43.132Z,102425.20
2018-05-05T22:29:08.887Z,102431.16
2018-05-05T22:31:34.647Z,102430.09
2018-05-05T22:34:00.487Z,102433.45
2018-05-05T22:36:26.278Z,102433.78
2018-05-05T22:38:52.023Z,102434.05
2018-05-05T22:41:17.779Z,102440.84
2018-05-05T22:43:43.554Z,102440.33
2018-05-05T22:46:09.467Z,102445.92
2018-05-05T22:48:35.263Z,102440.52
2018-05-05T22:51:01.048Z,102446.00
2018-05-05T22:53:26.808Z,102442.17
2018-05-05T22:55:52.571Z,102439.53
2018-05-05T22:58:18.615Z,102437.27
2018-05-05T23:00:44.361Z,102438.49
2018-05-05T23:03:10.142Z,102437.67
2018-05-05T23:05:35.923Z,102436.67
2018-05-05T23:08:01.835Z,102440.02
2018-05-05T23:10:27.607Z,102433.77
2018-05-05T23:12:53.380Z,102441.05
2018-05-05T23:15:19.145Z,102436.20
2018-05-05T23:17:44.895Z,102447.73
2018-05-05T23:20:10.705Z,102445.89
2018-05-05T23:22:36.494Z,102444.66
2018-05-05T23:25:02.268Z,102450.63
2018-05-05T23:27:28.088Z,102450.40
2018-05-05T23:29:53.857Z,102450.67
2018-05-05T23:32:19.617Z,102448.67
2018-05-05T23:34:45.385Z,102448.45
2018-05-05T23:37:11.140Z,102448.30
2018-05-05T23:39:36.911Z,102447.53
2018-05-05T23:42:02.676Z,102444.75
2018-05-05T23:44:28.448Z,102447.66
2018-05-05T23:46:54.216Z,102446.42
2018-05-05T23:49:19.992Z,102440.09
2018-05-05T23:51:45.768Z,102431.97
2018-05-05T23:54:11.539Z,102433.06
2018-05-05T23:56:37.296Z,102437.70
2018-05-05T23:59:03.183Z,102433.84
